Portada
METAR-TAF:

METAR-TAF

Aeroports :

Khon Kaen, Tailàndia

latitud: 16-26N, longitud: 102-50E, altitud: 165 m

Observació

L'informe es va fer fa 1 hora i 32 minuts, a les 13:00 UTC
Vent 3 kt del Est/Nord-Est, variant entre Nord/Nord-Est i Est
Temperatura 28°C
Humitat 55%
Pressió 1012 hPa
Visibilitat: 9000 m

METAR: VTUK 181300Z 06003KT 030V090 9000 NSC 28/18 Q1012 NOSIG

Hora: 21:32 (14:32 UTC)

Pronòstic

L'informe es va fer fa 3 hores i 32 minuts, a les 11:00 UTC
Pronòstic vàlid del 18 a les 12 UTC al 19 a les 12 UTC
Vent 7 kt del Est/Nord-Est
Visibilitat: 9000 m
Escasses núvols a una alçada de 2500 ft
Núvols disperses a una alçada de 10000 ft

TAF: VTUK 181100Z 1812/1912 07007KT 9000 FEW025 SCT100

Observacions i pronòstics meteorològics de més de 4000 aeroports (METAR i TAF).

Les estacions disponibles són els punts grocs i vermells al mapa.

Posi el ratolí al punt desitjat per veure el nom de l'estació.

Feu clic per veure les observacions i els pronòstics meteorològics.

Per canviar el mapa: feu clic els botons verds amb una creu de color negre per apropar; al botó verd amb un guió per allunyar la imatge; o en les fletxes verdes per a mapes adjacents.


METAR-TAF: